createdAt,value
2022-10-10T00:02:19.276Z,60.36
2022-10-10T00:07:50.434Z,60.47
2022-10-10T00:13:21.959Z,60.34
2022-10-10T00:18:52.932Z,60.51
2022-10-10T00:24:24.177Z,60.67
2022-10-10T00:29:58.524Z,60.67
2022-10-10T00:35:32.713Z,60.40
2022-10-10T00:41:05.631Z,60.31
2022-10-10T00:46:37.330Z,59.70
2022-10-10T00:52:09.974Z,60.13
2022-10-10T00:57:41.790Z,59.65
2022-10-10T01:03:13.315Z,60.91
2022-10-10T01:08:49.762Z,60.67
2022-10-10T01:15:15.676Z,60.40
2022-10-10T01:21:25.778Z,60.49
2022-10-10T01:27:17.413Z,59.73
2022-10-10T01:33:28.519Z,60.45
2022-10-10T01:39:09.529Z,59.89
2022-10-10T01:44:47.210Z,59.69
2022-10-10T01:50:24.185Z,60.65
2022-10-10T01:56:17.857Z,60.52
2022-10-10T02:02:08.572Z,60.57
2022-10-10T02:07:55.325Z,59.97
2022-10-10T02:13:35.989Z,60.24
2022-10-10T02:19:09.441Z,59.79
2022-10-10T02:24:40.490Z,60.22
2022-10-10T02:30:12.552Z,59.82
2022-10-10T02:35:46.050Z,60.66
2022-10-10T02:41:19.351Z,59.95
2022-10-10T02:46:50.269Z,60.14
2022-10-10T02:52:21.564Z,60.54
2022-10-10T02:57:53.346Z,60.57
2022-10-10T03:03:30.168Z,60.20
2022-10-10T03:09:10.826Z,60.46
2022-10-10T03:14:42.913Z,60.69
2022-10-10T03:20:17.839Z,59.55
2022-10-10T03:25:52.869Z,60.90
2022-10-10T03:31:28.253Z,60.99
2022-10-10T03:37:01.797Z,59.32
2022-10-10T03:42:32.695Z,60.13
2022-10-10T03:48:04.898Z,60.42
2022-10-10T03:53:36.759Z,59.54
2022-10-10T03:59:10.677Z,59.26
2022-10-10T04:04:50.754Z,61.01
2022-10-10T04:10:28.554Z,61.13
2022-10-10T04:16:02.180Z,59.88
2022-10-10T04:21:34.722Z,59.95
2022-10-10T04:27:06.300Z,60.19
2022-10-10T04:32:37.927Z,59.72
2022-10-10T04:38:09.218Z,61.33
2022-10-10T04:43:41.056Z,60.68
2022-10-10T04:49:18.983Z,60.31
2022-10-10T04:54:58.559Z,59.94
2022-10-10T05:00:30.113Z,59.44
2022-10-10T05:06:02.942Z,60.54
2022-10-10T05:11:34.448Z,60.25
2022-10-10T05:17:05.759Z,60.79
2022-10-10T05:22:37.615Z,59.75
2022-10-10T05:28:09.686Z,60.93
2022-10-10T05:33:41.331Z,60.42
2022-10-10T05:39:12.675Z,61.30
2022-10-10T05:44:44.826Z,61.29
2022-10-10T05:50:38.684Z,60.86
2022-10-10T05:56:11.665Z,60.48
2022-10-10T06:01:42.633Z,60.32
2022-10-10T06:07:13.669Z,60.26
2022-10-10T06:12:44.892Z,60.89
2022-10-10T06:18:15.910Z,61.26
2022-10-10T06:23:47.363Z,60.50
2022-10-10T06:29:18.337Z,61.14
2022-10-10T06:34:49.907Z,60.36
2022-10-10T06:40:26.253Z,61.22
2022-10-10T06:45:57.809Z,61.60
2022-10-10T06:51:29.160Z,61.81
2022-10-10T06:57:03.234Z,62.23
2022-10-10T07:02:34.408Z,61.56
2022-10-10T07:08:05.481Z,61.99
2022-10-10T07:14:01.609Z,61.82
2022-10-10T07:19:33.032Z,61.79
2022-10-10T07:25:04.769Z,61.41
2022-10-10T07:30:46.493Z,61.81
2022-10-10T07:36:18.771Z,61.41
2022-10-10T07:41:50.755Z,61.10
2022-10-10T07:47:22.294Z,61.09
2022-10-10T07:52:53.469Z,61.21
2022-10-10T07:58:30.046Z,60.86
2022-10-10T08:04:01.447Z,60.70
2022-10-10T08:09:32.995Z,62.52
2022-10-10T08:15:06.230Z,60.80
2022-10-10T08:20:37.170Z,61.09
2022-10-10T08:26:10.636Z,60.51
2022-10-10T08:32:33.247Z,60.20
2022-10-10T08:38:06.766Z,60.34
2022-10-10T08:43:44.809Z,60.48
2022-10-10T08:49:39.711Z,60.16
2022-10-10T08:55:18.495Z,60.58
2022-10-10T09:01:13.776Z,60.57
2022-10-10T09:06:51.384Z,60.57
2022-10-10T09:12:58.668Z,60.37
2022-10-10T09:25:06.426Z,60.34
2022-10-10T09:30:50.346Z,60.11
2022-10-10T09:36:34.304Z,60.57
2022-10-10T09:42:14.190Z,60.42
2022-10-10T09:47:49.772Z,60.45
2022-10-10T09:53:21.026Z,60.50
2022-10-10T09:58:53.869Z,60.39
2022-10-10T10:04:33.147Z,60.21
2022-10-10T10:10:24.795Z,60.21
2022-10-10T10:16:02.318Z,60.32
2022-10-10T10:21:49.890Z,60.51
2022-10-10T10:27:24.808Z,60.59
2022-10-10T10:33:10.472Z,60.91
2022-10-10T10:38:47.554Z,60.74
2022-10-10T10:44:25.101Z,60.91
2022-10-10T10:49:59.842Z,61.11
2022-10-10T10:55:39.856Z,61.25
2022-10-10T11:01:56.961Z,61.24
2022-10-10T11:07:37.656Z,61.07
2022-10-10T11:13:35.757Z,61.04
2022-10-10T11:26:14.818Z,61.35
2022-10-10T11:31:52.049Z,61.92
2022-10-10T11:37:27.714Z,62.01
2022-10-10T11:43:04.497Z,61.21
2022-10-10T11:48:44.674Z,60.99
2022-10-10T11:54:57.831Z,61.23
2022-10-10T12:00:29.329Z,61.40
2022-10-10T12:06:34.736Z,61.58
2022-10-10T12:12:39.074Z,61.37
2022-10-10T12:18:27.454Z,61.54
2022-10-10T12:24:10.576Z,61.77
2022-10-10T12:29:50.925Z,61.31
2022-10-10T12:35:36.250Z,61.72
2022-10-10T12:41:09.018Z,61.73
2022-10-10T12:46:40.075Z,61.79
2022-10-10T12:52:13.836Z,61.71
2022-10-10T12:57:47.164Z,61.52
2022-10-10T13:03:21.679Z,61.75
2022-10-10T13:08:54.211Z,61.45
2022-10-10T13:14:27.035Z,61.73
2022-10-10T13:20:00.475Z,61.82
2022-10-10T13:25:35.709Z,61.93
2022-10-10T13:31:32.230Z,62.14
2022-10-10T13:37:05.129Z,62.20
2022-10-10T13:42:38.742Z,62.44
2022-10-10T13:48:18.774Z,62.45
2022-10-10T13:53:55.324Z,62.38
2022-10-10T13:59:30.289Z,62.56
2022-10-10T14:11:27.718Z,62.74
2022-10-10T14:17:04.125Z,62.94
2022-10-10T14:22:35.599Z,62.94
2022-10-10T14:28:18.974Z,63.17
2022-10-10T14:33:49.902Z,62.93
2022-10-10T14:39:21.021Z,63.62
2022-10-10T14:44:52.257Z,63.72
2022-10-10T14:50:25.842Z,63.47
2022-10-10T14:55:59.942Z,63.81
2022-10-10T15:01:30.984Z,63.79
2022-10-10T15:07:12.995Z,64.12
2022-10-10T15:12:45.129Z,63.83
2022-10-10T15:18:47.828Z,64.17
2022-10-10T15:24:07.592Z,64.05
2022-10-10T15:29:39.794Z,64.21
2022-10-10T15:35:15.195Z,64.37
2022-10-10T15:40:56.061Z,64.49
2022-10-10T15:46:28.575Z,64.60
2022-10-10T15:52:00.206Z,64.37
2022-10-10T15:57:31.811Z,64.71
2022-10-10T16:03:03.655Z,64.77
2022-10-10T16:08:36.654Z,64.60
2022-10-10T16:14:07.682Z,64.69
2022-10-10T16:19:38.922Z,64.89
2022-10-10T16:25:21.923Z,64.60
2022-10-10T16:31:19.705Z,64.17
2022-10-10T16:36:50.612Z,64.37
2022-10-10T16:42:22.016Z,64.26
2022-10-10T16:47:52.976Z,63.99
2022-10-10T16:53:24.065Z,63.96
2022-10-10T16:58:55.309Z,64.24
2022-10-10T17:04:26.615Z,63.88
2022-10-10T17:09:57.838Z,63.96
2022-10-10T17:15:28.726Z,64.16
2022-10-10T17:20:59.974Z,63.98
2022-10-10T17:26:31.675Z,64.21
2022-10-10T17:32:06.524Z,64.45
2022-10-10T17:37:38.229Z,64.26
2022-10-10T17:43:10.363Z,64.48
2022-10-10T17:48:41.686Z,64.63
2022-10-10T17:54:13.691Z,64.47
2022-10-10T17:59:44.668Z,64.55
2022-10-10T18:05:15.489Z,64.35
2022-10-10T18:10:46.710Z,64.36
2022-10-10T18:16:20.521Z,64.49
2022-10-10T18:21:51.343Z,64.59
2022-10-10T18:27:22.244Z,64.62
2022-10-10T18:32:53.691Z,64.53
2022-10-10T18:38:24.695Z,64.55
2022-10-10T18:43:57.231Z,64.71
2022-10-10T18:49:28.434Z,64.61
2022-10-10T18:54:59.378Z,64.66
2022-10-10T19:00:30.617Z,64.52
2022-10-10T19:06:02.844Z,64.54
2022-10-10T19:11:35.934Z,64.66
2022-10-10T19:17:06.709Z,64.70
2022-10-10T19:22:37.738Z,64.49
2022-10-10T19:28:09.609Z,64.59
2022-10-10T19:33:41.095Z,64.56
2022-10-10T19:39:12.030Z,64.59
2022-10-10T19:44:43.281Z,64.61
2022-10-10T19:50:14.533Z,64.71
2022-10-10T19:56:00.280Z,64.62
2022-10-10T20:01:32.422Z,64.60
2022-10-10T20:07:03.231Z,64.77
2022-10-10T20:12:34.832Z,64.78
2022-10-10T20:18:06.033Z,64.88
2022-10-10T20:23:37.411Z,64.96
2022-10-10T20:29:08.989Z,64.83
2022-10-10T20:34:40.021Z,64.85
2022-10-10T20:40:11.251Z,65.00
2022-10-10T20:45:42.955Z,64.94
2022-10-10T20:51:14.297Z,65.07
2022-10-10T20:56:45.750Z,65.14
2022-10-10T21:02:19.386Z,65.27
2022-10-10T21:07:50.973Z,65.14
2022-10-10T21:13:22.250Z,65.32
2022-10-10T21:18:57.778Z,65.60
2022-10-10T21:24:29.113Z,65.43
2022-10-10T21:30:00.894Z,65.41
2022-10-10T21:35:32.155Z,65.62
2022-10-10T21:41:05.758Z,65.84
2022-10-10T21:46:37.596Z,65.93
2022-10-10T21:52:08.804Z,65.77
2022-10-10T21:57:39.957Z,65.79
2022-10-10T22:03:11.107Z,65.99
2022-10-10T22:08:43.147Z,66.02
2022-10-10T22:14:14.040Z,66.04
2022-10-10T22:19:45.282Z,66.00
2022-10-10T22:25:17.989Z,66.16
2022-10-10T22:30:49.285Z,66.04
2022-10-10T22:36:20.517Z,66.21
2022-10-10T22:41:51.623Z,66.12
2022-10-10T22:47:22.564Z,66.10
2022-10-10T22:52:54.026Z,66.29
2022-10-10T22:58:25.328Z,66.46
2022-10-10T23:04:00.354Z,66.40
2022-10-10T23:09:32.157Z,66.56
2022-10-10T23:15:03.352Z,66.74
2022-10-10T23:20:34.509Z,66.58
2022-10-10T23:26:07.624Z,66.47
2022-10-10T23:31:40.126Z,66.65
2022-10-10T23:37:11.590Z,66.74
2022-10-10T23:42:42.810Z,66.60
2022-10-10T23:48:14.335Z,66.75
2022-10-10T23:53:45.390Z,66.62
2022-10-10T23:59:17.081Z,66.74
